createdAt,value
2019-06-27T00:01:17.511Z,24.70
2019-06-27T00:03:46.065Z,24.50
2019-06-27T00:06:14.651Z,24.60
2019-06-27T00:08:43.221Z,24.50
2019-06-27T00:11:11.895Z,24.50
2019-06-27T00:13:40.604Z,24.50
2019-06-27T00:16:09.265Z,24.50
2019-06-27T00:18:37.973Z,24.50
2019-06-27T00:21:06.648Z,24.40
2019-06-27T00:23:35.211Z,24.20
2019-06-27T00:26:03.805Z,24.10
2019-06-27T00:28:32.450Z,23.90
2019-06-27T00:31:01.083Z,24.00
2019-06-27T00:33:29.655Z,24.20
2019-06-27T00:35:58.263Z,24.00
2019-06-27T00:38:26.872Z,23.70
2019-06-27T00:40:55.472Z,23.60
2019-06-27T00:43:24.213Z,23.40
2019-06-27T00:45:52.800Z,23.70
2019-06-27T00:48:21.430Z,23.60
2019-06-27T00:50:49.974Z,23.30
2019-06-27T00:53:18.559Z,23.20
2019-06-27T00:55:47.167Z,23.00
2019-06-27T00:58:15.737Z,23.00
2019-06-27T01:00:44.319Z,22.90
2019-06-27T01:03:12.892Z,22.90
2019-06-27T01:05:41.464Z,22.90
2019-06-27T01:08:10.039Z,22.80
2019-06-27T01:10:39.688Z,23.00
2019-06-27T01:13:08.224Z,22.70
2019-06-27T01:15:37.838Z,22.70
2019-06-27T01:18:06.556Z,22.60
2019-06-27T01:20:35.146Z,22.70
2019-06-27T01:23:03.715Z,22.60
2019-06-27T01:25:32.296Z,22.20
2019-06-27T01:28:00.886Z,22.30
2019-06-27T01:30:30.490Z,22.40
2019-06-27T01:32:59.055Z,22.10
2019-06-27T01:35:27.666Z,21.90
2019-06-27T01:37:56.321Z,22.00
2019-06-27T01:40:24.912Z,21.70
2019-06-27T01:42:53.545Z,21.60
2019-06-27T01:45:29.951Z,21.50
2019-06-27T01:47:58.542Z,21.60
2019-06-27T01:50:27.177Z,21.30
2019-06-27T01:52:55.836Z,21.10
2019-06-27T01:55:24.591Z,21.00
2019-06-27T01:57:53.227Z,21.00
2019-06-27T02:00:22.448Z,21.00
2019-06-27T02:02:50.976Z,20.80
2019-06-27T02:05:19.721Z,20.60
2019-06-27T02:07:48.389Z,20.70
2019-06-27T02:10:18.784Z,20.70
2019-06-27T02:12:47.398Z,20.80
2019-06-27T02:15:16.798Z,20.60
2019-06-27T02:17:45.476Z,20.70
2019-06-27T02:20:14.374Z,20.60
2019-06-27T02:22:42.887Z,20.30
2019-06-27T02:25:11.981Z,20.60
2019-06-27T02:27:40.565Z,20.40
2019-06-27T02:30:09.869Z,20.10
2019-06-27T02:32:38.477Z,20.10
2019-06-27T02:35:08.290Z,20.00
2019-06-27T02:37:36.874Z,20.10
2019-06-27T02:40:08.795Z,20.00
2019-06-27T02:42:37.406Z,20.00
2019-06-27T02:45:07.810Z,19.80
2019-06-27T02:47:36.393Z,19.60
2019-06-27T02:50:07.301Z,19.90
2019-06-27T02:52:35.887Z,19.60
2019-06-27T02:55:05.304Z,19.60
2019-06-27T02:57:33.867Z,19.50
2019-06-27T03:00:02.500Z,19.50
2019-06-27T03:02:31.119Z,19.70
2019-06-27T03:04:59.656Z,19.60
2019-06-27T03:07:28.244Z,19.40
2019-06-27T03:09:56.890Z,19.50
2019-06-27T03:12:25.487Z,19.30
2019-06-27T03:14:54.062Z,19.00
2019-06-27T03:17:22.626Z,19.00
2019-06-27T03:19:51.240Z,19.20
2019-06-27T03:22:19.781Z,19.30
2019-06-27T03:24:48.378Z,19.50
2019-06-27T03:27:16.967Z,19.50
2019-06-27T03:29:45.647Z,19.70
2019-06-27T03:32:14.193Z,20.10
2019-06-27T03:34:42.826Z,19.80
2019-06-27T03:37:11.475Z,20.10
2019-06-27T03:39:40.102Z,20.10
2019-06-27T03:42:08.680Z,19.90
2019-06-27T03:44:37.276Z,19.50
2019-06-27T03:47:05.838Z,19.90
2019-06-27T03:49:34.450Z,19.80
2019-06-27T03:52:03.009Z,19.80
2019-06-27T03:54:31.663Z,19.70
2019-06-27T03:57:00.307Z,19.80
2019-06-27T03:59:28.899Z,20.00
2019-06-27T04:01:57.466Z,20.30
2019-06-27T04:04:26.051Z,20.50
2019-06-27T04:06:54.644Z,20.50
2019-06-27T04:09:23.294Z,20.20
2019-06-27T04:11:51.885Z,20.30
2019-06-27T04:14:20.493Z,19.90
2019-06-27T04:16:49.652Z,19.70
2019-06-27T04:19:18.418Z,19.70
2019-06-27T04:21:47.082Z,19.60
2019-06-27T04:24:15.781Z,19.70
2019-06-27T04:26:44.327Z,19.70
2019-06-27T04:29:32.146Z,20.10
2019-06-27T04:31:43.207Z,20.30
2019-06-27T04:34:11.799Z,20.30
2019-06-27T04:36:40.377Z,20.40
2019-06-27T04:39:08.961Z,20.10
2019-06-27T04:41:37.556Z,20.00
2019-06-27T04:44:06.129Z,20.00
2019-06-27T04:46:34.740Z,20.20
2019-06-27T04:49:03.373Z,20.40
2019-06-27T04:51:32.003Z,21.10
2019-06-27T04:54:00.544Z,21.50
2019-06-27T04:56:29.178Z,21.60
2019-06-27T04:58:57.737Z,21.70
2019-06-27T05:01:26.393Z,22.20
2019-06-27T05:03:54.997Z,22.30
2019-06-27T05:06:23.542Z,22.30
2019-06-27T05:08:52.128Z,22.70
2019-06-27T05:11:20.707Z,22.80
2019-06-27T05:13:49.298Z,22.10
2019-06-27T05:16:17.867Z,22.20
2019-06-27T05:18:46.564Z,22.10
2019-06-27T05:21:15.124Z,21.90
2019-06-27T05:23:43.726Z,22.00
2019-06-27T05:26:12.294Z,22.20
2019-06-27T05:28:40.978Z,21.90
2019-06-27T05:31:09.633Z,21.50
2019-06-27T05:33:38.192Z,22.40
2019-06-27T05:36:06.794Z,22.90
2019-06-27T05:38:35.332Z,24.00
2019-06-27T05:41:04.107Z,24.10
2019-06-27T05:43:32.667Z,24.20
2019-06-27T05:46:01.288Z,24.20
2019-06-27T05:48:29.855Z,24.30
2019-06-27T05:50:58.464Z,23.70
2019-06-27T05:53:26.999Z,23.90
2019-06-27T05:55:55.577Z,24.60
2019-06-27T05:58:24.160Z,24.80
2019-06-27T06:00:52.750Z,25.10
2019-06-27T06:03:21.300Z,25.20
2019-06-27T06:05:49.910Z,25.20
2019-06-27T06:08:18.468Z,25.20
2019-06-27T06:10:47.053Z,25.50
2019-06-27T06:13:15.619Z,25.80
2019-06-27T06:15:44.127Z,26.40
2019-06-27T06:18:12.684Z,27.50
2019-06-27T06:20:41.419Z,27.50
2019-06-27T06:23:09.994Z,27.60
2019-06-27T06:25:38.572Z,27.30
2019-06-27T06:28:07.143Z,27.10
2019-06-27T06:30:44.336Z,27.30
2019-06-27T06:33:05.987Z,27.50
2019-06-27T06:35:34.563Z,27.00
2019-06-27T06:38:03.120Z,26.90
2019-06-27T06:40:31.807Z,26.90
2019-06-27T06:43:00.818Z,27.00
2019-06-27T06:45:29.576Z,27.10
2019-06-27T06:47:58.135Z,27.00
2019-06-27T06:50:26.754Z,27.00
2019-06-27T06:52:55.294Z,27.90
2019-06-27T06:55:23.846Z,28.30
2019-06-27T06:57:52.432Z,28.00
2019-06-27T07:00:22.433Z,28.10
2019-06-27T07:02:51.006Z,28.20
2019-06-27T07:05:19.560Z,28.20
2019-06-27T07:07:48.126Z,28.30
2019-06-27T07:10:17.009Z,28.80
2019-06-27T07:12:45.647Z,29.40
2019-06-27T07:15:14.259Z,29.60
2019-06-27T07:17:42.865Z,29.20
2019-06-27T07:20:12.467Z,30.00
2019-06-27T07:22:41.055Z,30.00
2019-06-27T07:25:09.832Z,30.30
2019-06-27T07:27:38.387Z,30.70
2019-06-27T07:30:07.210Z,30.60
2019-06-27T07:32:35.925Z,30.90
2019-06-27T07:35:06.343Z,30.80
2019-06-27T07:37:34.843Z,31.00
2019-06-27T07:40:05.253Z,31.20
2019-06-27T07:42:33.791Z,30.90
2019-06-27T07:45:02.415Z,30.80
2019-06-27T07:47:30.940Z,30.80
2019-06-27T07:49:59.541Z,31.00
2019-06-27T07:52:28.082Z,31.00
2019-06-27T07:54:56.665Z,30.80
2019-06-27T07:57:25.219Z,31.40
2019-06-27T07:59:53.695Z,31.90
2019-06-27T08:02:22.290Z,31.80
2019-06-27T08:04:50.838Z,32.30
2019-06-27T08:07:21.331Z,32.10
2019-06-27T08:09:49.596Z,32.10
2019-06-27T08:12:18.153Z,32.10
2019-06-27T08:14:47.379Z,31.60
2019-06-27T08:17:15.974Z,31.60
2019-06-27T08:19:55.239Z,32.00
2019-06-27T08:22:23.827Z,32.10
2019-06-27T08:24:52.399Z,32.80
2019-06-27T08:27:20.992Z,32.80
2019-06-27T08:29:49.548Z,32.50
2019-06-27T08:32:18.126Z,32.60
2019-06-27T08:34:46.713Z,33.20
2019-06-27T08:37:15.276Z,31.40
2019-06-27T08:39:43.855Z,32.80
2019-06-27T08:42:12.431Z,32.80
2019-06-27T08:44:41.015Z,33.20
2019-06-27T08:47:09.571Z,33.50
2019-06-27T08:49:38.219Z,33.10
2019-06-27T08:52:06.883Z,33.00
2019-06-27T08:54:35.439Z,33.20
2019-06-27T08:57:04.133Z,33.40
2019-06-27T08:59:32.701Z,34.00
2019-06-27T09:02:08.594Z,33.50
2019-06-27T09:04:31.496Z,33.40
2019-06-27T09:07:00.156Z,33.80
2019-06-27T09:09:29.752Z,34.10
2019-06-27T09:11:58.424Z,33.70
2019-06-27T09:14:26.988Z,33.80
2019-06-27T09:16:55.571Z,33.50
2019-06-27T09:19:24.302Z,33.80
2019-06-27T09:21:52.883Z,33.80
2019-06-27T09:24:21.463Z,34.00
2019-06-27T09:26:50.090Z,33.50
2019-06-27T09:29:18.666Z,33.30
2019-06-27T09:31:47.284Z,33.50
2019-06-27T09:34:15.859Z,33.60
2019-06-27T09:36:46.412Z,33.70
2019-06-27T09:39:15.029Z,33.50
2019-06-27T09:41:43.608Z,33.70
2019-06-27T09:44:12.194Z,33.40
2019-06-27T09:46:40.730Z,34.50
2019-06-27T09:49:09.381Z,34.20
2019-06-27T09:51:37.952Z,34.00
2019-06-27T09:54:06.566Z,33.50
2019-06-27T09:56:35.251Z,33.10
2019-06-27T09:59:03.787Z,34.40
2019-06-27T10:01:32.362Z,33.80
2019-06-27T10:04:00.918Z,34.00
2019-06-27T10:06:29.501Z,34.30
2019-06-27T10:08:58.324Z,33.60
2019-06-27T10:11:27.025Z,33.70
2019-06-27T10:13:55.605Z,33.80
2019-06-27T10:16:24.194Z,34.10
2019-06-27T10:18:52.757Z,33.60
2019-06-27T10:21:21.357Z,34.30
2019-06-27T10:23:49.908Z,34.00
2019-06-27T10:26:18.501Z,34.30
2019-06-27T10:28:47.030Z,33.90
2019-06-27T10:31:15.593Z,33.80
2019-06-27T10:33:44.188Z,34.00
2019-06-27T10:36:12.750Z,33.90
2019-06-27T10:38:41.512Z,34.00
2019-06-27T10:41:10.138Z,33.80
2019-06-27T10:43:38.685Z,34.10
2019-06-27T10:46:07.216Z,33.80
2019-06-27T10:48:35.791Z,33.40
2019-06-27T10:51:04.368Z,33.60
2019-06-27T10:53:34.451Z,33.50
2019-06-27T10:56:03.112Z,33.20
2019-06-27T10:58:31.762Z,33.00
2019-06-27T11:01:00.381Z,33.00
2019-06-27T11:03:28.989Z,33.00
2019-06-27T11:05:57.556Z,33.20
2019-06-27T11:08:26.132Z,33.50
2019-06-27T11:10:57.365Z,33.00
2019-06-27T11:13:26.876Z,33.50
2019-06-27T11:15:55.842Z,33.20
2019-06-27T11:18:24.427Z,32.70
2019-06-27T11:20:55.343Z,33.40
2019-06-27T11:23:25.156Z,33.50
2019-06-27T11:25:53.901Z,33.20
2019-06-27T11:28:22.499Z,33.40
2019-06-27T11:30:55.774Z,33.60
2019-06-27T11:33:32.569Z,33.20
2019-06-27T11:35:56.214Z,33.20
2019-06-27T11:38:30.244Z,33.40
2019-06-27T11:41:04.699Z,34.00
2019-06-27T11:43:38.059Z,34.10
2019-06-27T11:46:10.484Z,33.70
2019-06-27T11:48:50.970Z,33.20
2019-06-27T12:55:37.323Z,31.20
2019-06-27T12:58:05.978Z,31.10
2019-06-27T13:00:34.774Z,31.10
2019-06-27T13:03:03.319Z,30.90
2019-06-27T13:05:31.977Z,31.20
2019-06-27T13:08:00.554Z,31.20
2019-06-27T13:10:35.706Z,30.80
2019-06-27T13:13:05.121Z,31.00
2019-06-27T13:15:34.061Z,30.90
2019-06-27T13:18:02.687Z,30.90
2019-06-27T13:20:31.369Z,30.50
2019-06-27T13:22:59.958Z,30.50
2019-06-27T13:25:28.648Z,30.30
2019-06-27T13:27:57.296Z,30.60
2019-06-27T13:30:25.977Z,30.60
2019-06-27T13:32:54.550Z,31.00
2019-06-27T13:35:23.153Z,30.80
2019-06-27T13:37:51.706Z,30.70
2019-06-27T13:40:20.431Z,30.30
2019-06-27T13:42:49.558Z,29.90
2019-06-27T13:45:18.346Z,30.10
2019-06-27T13:47:46.870Z,30.10
2019-06-27T13:50:15.748Z,30.20
2019-06-27T13:52:44.389Z,30.10
2019-06-27T13:55:13.119Z,29.80
2019-06-27T13:57:41.762Z,30.40
2019-06-27T14:00:10.785Z,30.00
2019-06-27T14:02:39.339Z,29.60
2019-06-27T14:05:08.342Z,29.70
2019-06-27T14:07:36.920Z,29.40
2019-06-27T14:10:07.537Z,29.20
2019-06-27T14:12:36.157Z,29.00
2019-06-27T14:15:06.625Z,29.20
2019-06-27T14:17:35.259Z,29.30
2019-06-27T14:20:05.393Z,29.50
2019-06-27T14:22:34.309Z,29.40
2019-06-27T14:25:02.907Z,29.30
2019-06-27T14:27:31.480Z,29.10
2019-06-27T14:30:00.061Z,29.00
2019-06-27T14:32:28.637Z,29.20
2019-06-27T14:35:10.729Z,29.20
2019-06-27T14:37:27.555Z,29.30
2019-06-27T14:39:56.719Z,29.10
2019-06-27T14:42:25.460Z,29.00
2019-06-27T14:44:54.103Z,29.00
2019-06-27T14:47:22.643Z,28.80
2019-06-27T14:49:51.207Z,29.00
2019-06-27T14:52:19.805Z,28.80
2019-06-27T14:54:48.642Z,28.30
2019-06-27T14:57:17.250Z,28.60
2019-06-27T14:59:45.796Z,28.50
2019-06-27T15:02:14.383Z,28.30
2019-06-27T15:04:42.956Z,28.10
2019-06-27T15:07:11.532Z,28.10
2019-06-27T15:09:40.021Z,28.10
2019-06-27T15:12:08.596Z,28.30
2019-06-27T15:14:37.096Z,28.10
2019-06-27T15:17:05.668Z,28.00
2019-06-27T15:19:34.236Z,28.10
2019-06-27T15:22:02.823Z,28.10
2019-06-27T15:24:31.414Z,28.30
2019-06-27T15:26:59.966Z,28.10
2019-06-27T15:29:28.531Z,28.00
2019-06-27T15:31:57.184Z,27.80
2019-06-27T15:34:25.753Z,27.70
2019-06-27T15:36:54.337Z,27.60
2019-06-27T15:39:22.898Z,27.50
2019-06-27T15:41:51.510Z,27.70
2019-06-27T15:44:20.823Z,28.00
2019-06-27T15:46:49.474Z,27.90
2019-06-27T15:49:18.038Z,27.50
2019-06-27T15:51:46.668Z,27.20
2019-06-27T15:54:15.278Z,27.10
2019-06-27T15:56:43.830Z,27.10
2019-06-27T15:59:12.433Z,27.10
2019-06-27T16:01:41.009Z,26.90
2019-06-27T16:04:09.611Z,27.00
2019-06-27T16:06:38.172Z,26.80
2019-06-27T16:09:07.132Z,27.00
2019-06-27T16:11:35.716Z,27.00
2019-06-27T16:14:04.361Z,27.10
2019-06-27T16:16:32.914Z,26.90
2019-06-27T16:19:01.502Z,26.90
2019-06-27T16:21:30.176Z,26.60
2019-06-27T16:23:58.829Z,26.40
2019-06-27T16:26:27.411Z,26.40
2019-06-27T16:28:55.954Z,26.40
2019-06-27T16:31:24.621Z,26.20
2019-06-27T16:33:53.175Z,26.20
2019-06-27T16:36:25.874Z,26.10
2019-06-27T16:38:51.981Z,26.00
2019-06-27T16:41:20.666Z,26.10
2019-06-27T16:43:49.267Z,26.00
2019-06-27T16:46:17.867Z,26.00
2019-06-27T16:48:46.436Z,26.00
2019-06-27T16:51:14.934Z,26.10
2019-06-27T16:53:43.458Z,26.00
2019-06-27T16:56:12.024Z,25.70
2019-06-27T16:58:40.616Z,25.70
2019-06-27T17:01:09.188Z,25.70
2019-06-27T17:03:37.767Z,26.00
2019-06-27T17:06:06.407Z,26.00
2019-06-27T17:08:34.993Z,25.90
2019-06-27T17:11:03.557Z,25.60
2019-06-27T17:13:32.181Z,25.60
2019-06-27T17:16:00.752Z,25.40
2019-06-27T17:18:29.413Z,25.40
2019-06-27T17:20:58.025Z,25.40
2019-06-27T17:23:26.668Z,25.30
2019-06-27T17:25:56.472Z,25.30
2019-06-27T17:28:25.135Z,25.30
2019-06-27T17:30:53.684Z,25.20
2019-06-27T17:33:22.189Z,25.10
2019-06-27T17:35:50.755Z,25.10
2019-06-27T17:38:19.321Z,25.20
2019-06-27T17:40:47.911Z,25.30
2019-06-27T17:43:16.487Z,25.20
2019-06-27T17:45:45.129Z,25.00
2019-06-27T17:48:13.706Z,25.00
2019-06-27T17:50:42.283Z,25.10
2019-06-27T17:53:10.859Z,24.90
2019-06-27T17:55:39.474Z,24.90
2019-06-27T17:58:08.015Z,25.00
2019-06-27T18:00:36.679Z,24.90
2019-06-27T18:03:05.316Z,24.80
2019-06-27T18:05:33.882Z,24.80
2019-06-27T18:08:02.455Z,24.60
2019-06-27T18:10:31.022Z,24.40
2019-06-27T18:12:59.589Z,24.30
2019-06-27T18:15:28.169Z,24.50
2019-06-27T18:17:56.720Z,24.30
2019-06-27T18:20:25.260Z,24.20
2019-06-27T18:22:53.831Z,24.10
2019-06-27T18:25:22.438Z,23.90
2019-06-27T18:27:51.166Z,24.00
2019-06-27T18:30:19.982Z,23.80
2019-06-27T18:32:48.807Z,23.70
2019-06-27T18:35:17.530Z,23.70
2019-06-27T18:37:46.100Z,23.70
2019-06-27T18:40:14.925Z,23.70
2019-06-27T18:42:43.464Z,23.50
2019-06-27T18:45:12.888Z,23.40
2019-06-27T18:47:41.453Z,23.50
2019-06-27T18:50:10.378Z,23.30
2019-06-27T18:52:38.940Z,23.20
2019-06-27T18:55:07.652Z,23.00
2019-06-27T18:57:36.268Z,23.00
2019-06-27T19:00:07.236Z,23.00
2019-06-27T19:02:35.796Z,22.90
2019-06-27T19:05:05.809Z,22.90
2019-06-27T19:07:44.872Z,22.80
2019-06-27T19:10:08.956Z,22.80
2019-06-27T19:12:37.602Z,22.60
2019-06-27T19:15:07.618Z,22.50
2019-06-27T19:17:36.192Z,22.60
2019-06-27T19:20:08.443Z,22.30
2019-06-27T19:22:54.372Z,22.30
2019-06-27T19:25:24.498Z,22.40
2019-06-27T19:27:53.026Z,22.30
2019-06-27T19:30:21.602Z,22.30
2019-06-27T19:32:50.178Z,22.10
2019-06-27T19:35:18.748Z,22.10
2019-06-27T19:38:00.936Z,22.10
2019-06-27T19:40:17.710Z,21.90
2019-06-27T19:42:46.362Z,21.90
2019-06-27T19:45:16.454Z,21.80
2019-06-27T19:47:45.035Z,21.70
2019-06-27T19:50:13.757Z,21.70
2019-06-27T19:52:42.330Z,21.60
2019-06-27T19:55:11.337Z,21.70
2019-06-27T19:57:39.957Z,21.50
2019-06-27T20:00:08.856Z,21.50
2019-06-27T20:02:37.432Z,21.50
2019-06-27T20:05:07.134Z,21.40
2019-06-27T20:07:35.772Z,21.50
2019-06-27T20:10:07.527Z,21.40
2019-06-27T20:12:36.101Z,21.40
2019-06-27T20:15:05.320Z,21.20
2019-06-27T20:17:33.886Z,21.10
2019-06-27T20:20:02.472Z,21.00
2019-06-27T20:22:31.056Z,20.90
2019-06-27T20:24:59.652Z,20.90
2019-06-27T20:27:28.252Z,20.80
2019-06-27T20:29:57.678Z,20.80
2019-06-27T20:32:26.258Z,20.60
2019-06-27T20:34:54.828Z,20.70
2019-06-27T20:37:26.065Z,20.60
2019-06-27T20:39:53.643Z,20.40
2019-06-27T20:42:22.276Z,20.40
2019-06-27T20:44:50.838Z,20.40
2019-06-27T20:47:19.449Z,20.40
2019-06-27T20:49:48.014Z,20.20
2019-06-27T20:52:16.596Z,20.00
2019-06-27T20:54:45.170Z,20.10
2019-06-27T20:57:13.802Z,20.10
2019-06-27T20:59:42.370Z,20.10
2019-06-27T21:02:10.951Z,19.90
2019-06-27T21:04:39.526Z,20.00
2019-06-27T21:07:09.968Z,19.90
2019-06-27T21:09:38.433Z,19.90
2019-06-27T21:12:07.055Z,19.80
2019-06-27T21:14:35.619Z,19.60
2019-06-27T21:17:04.324Z,19.60
2019-06-27T21:19:32.885Z,19.50
2019-06-27T21:22:01.383Z,19.40
2019-06-27T21:24:29.950Z,19.30
2019-06-27T21:26:58.677Z,19.50
2019-06-27T21:29:27.245Z,19.40
2019-06-27T21:31:55.859Z,19.20
2019-06-27T21:34:24.430Z,19.30
2019-06-27T21:36:53.050Z,19.30
2019-06-27T21:39:21.611Z,19.30
2019-06-27T21:41:50.296Z,19.20
2019-06-27T21:44:18.879Z,19.20
2019-06-27T21:46:47.420Z,19.00
2019-06-27T21:49:15.917Z,19.00
2019-06-27T21:51:44.719Z,19.00
2019-06-27T21:54:13.249Z,19.10
2019-06-27T21:56:41.803Z,19.10
2019-06-27T21:59:10.344Z,18.90
2019-06-27T22:01:39.046Z,19.00
2019-06-27T22:04:07.744Z,18.80
2019-06-27T22:06:36.303Z,18.40
2019-06-27T22:09:20.027Z,18.60
2019-06-27T22:11:37.527Z,18.60
2019-06-27T22:14:06.262Z,18.60
2019-06-27T22:16:34.926Z,18.40
2019-06-27T22:19:03.705Z,18.30
2019-06-27T22:21:32.243Z,18.50
2019-06-27T22:24:00.749Z,18.60
2019-06-27T22:26:29.317Z,18.50
2019-06-27T22:28:57.854Z,18.10
2019-06-27T22:31:26.486Z,18.40
2019-06-27T22:33:55.035Z,18.30
2019-06-27T22:36:23.675Z,18.30
2019-06-27T22:39:09.634Z,18.20
2019-06-27T22:41:56.065Z,18.20
2019-06-27T22:44:42.251Z,18.10
2019-06-27T22:47:28.433Z,18.10
2019-06-27T22:49:56.323Z,18.00
2019-06-27T22:52:31.975Z,17.80
2019-06-27T22:55:02.169Z,17.60
2019-06-27T22:57:30.798Z,17.80
2019-06-27T22:59:59.348Z,17.90
2019-06-27T23:02:27.850Z,17.70
2019-06-27T23:04:56.392Z,17.60
2019-06-27T23:07:24.961Z,17.60
2019-06-27T23:09:57.293Z,17.90
2019-06-27T23:12:23.791Z,17.80
2019-06-27T23:14:52.300Z,17.80
2019-06-27T23:17:20.842Z,17.60
2019-06-27T23:19:49.385Z,17.60
2019-06-27T23:22:17.953Z,17.60
2019-06-27T23:24:46.488Z,17.70
2019-06-27T23:27:15.045Z,17.60
2019-06-27T23:29:43.609Z,17.40
2019-06-27T23:32:12.170Z,17.20
2019-06-27T23:34:40.766Z,17.50
2019-06-27T23:37:09.373Z,17.50
2019-06-27T23:39:37.870Z,17.50
2019-06-27T23:42:06.368Z,17.30
2019-06-27T23:44:34.936Z,17.10
2019-06-27T23:47:03.519Z,17.30
2019-06-27T23:49:32.110Z,17.30
2019-06-27T23:52:00.792Z,17.40
2019-06-27T23:54:29.366Z,17.40
2019-06-27T23:56:57.957Z,17.10
2019-06-27T23:59:26.507Z,16.80
